createdAt,value
2019-05-12T00:01:28.802Z,9.10
2019-05-12T00:03:57.907Z,9.10
2019-05-12T00:06:24.372Z,9.00
2019-05-12T00:08:51.223Z,8.90
2019-05-12T00:11:18.267Z,8.90
2019-05-12T00:13:45.096Z,8.80
2019-05-12T00:16:11.855Z,8.70
2019-05-12T00:18:38.679Z,8.60
2019-05-12T00:21:05.539Z,8.60
2019-05-12T00:23:34.303Z,8.60
2019-05-12T00:26:01.160Z,8.50
2019-05-12T00:28:28.383Z,8.40
2019-05-12T00:30:57.864Z,8.40
2019-05-12T00:33:24.383Z,8.40
2019-05-12T00:35:51.124Z,8.40
2019-05-12T00:38:18.069Z,8.30
2019-05-12T00:40:44.811Z,8.40
2019-05-12T00:43:11.747Z,8.40
2019-05-12T00:45:38.888Z,8.40
2019-05-12T00:48:08.650Z,8.40
2019-05-12T00:50:35.034Z,8.40
2019-05-12T00:53:01.761Z,8.50
2019-05-12T00:55:29.624Z,8.50
2019-05-12T00:57:58.135Z,8.50
2019-05-12T01:00:25.019Z,8.60
2019-05-12T01:02:51.786Z,8.60
2019-05-12T01:05:18.760Z,8.60
2019-05-12T01:07:45.616Z,8.60
2019-05-12T01:10:12.439Z,8.60
2019-05-12T01:12:39.400Z,8.60
2019-05-12T01:15:07.512Z,8.60
2019-05-12T01:17:34.576Z,8.60
2019-05-12T01:20:01.536Z,8.70
2019-05-12T01:22:28.283Z,8.70
2019-05-12T01:24:55.034Z,8.70
2019-05-12T01:27:21.900Z,8.80
2019-05-12T01:29:48.791Z,8.80
2019-05-12T01:32:18.300Z,8.80
2019-05-12T01:34:48.200Z,8.80
2019-05-12T01:37:23.767Z,8.90
2019-05-12T01:39:52.135Z,8.90
2019-05-12T01:42:19.071Z,8.90
2019-05-12T01:44:48.040Z,8.90
2019-05-12T01:47:14.464Z,8.90
2019-05-12T01:49:54.293Z,8.90
2019-05-12T01:52:21.167Z,8.90
2019-05-12T01:54:48.439Z,8.90
2019-05-12T01:57:15.472Z,9.00
2019-05-12T01:59:42.323Z,9.00
2019-05-12T02:02:09.070Z,9.00
2019-05-12T02:04:38.845Z,9.00
2019-05-12T02:07:08.354Z,9.00
2019-05-12T02:09:49.128Z,9.00
2019-05-12T02:12:18.212Z,9.00
2019-05-12T02:15:07.980Z,9.10
2019-05-12T02:17:34.832Z,9.10
2019-05-12T02:20:02.975Z,9.10
2019-05-12T02:22:29.820Z,9.10
2019-05-12T02:24:58.427Z,9.10
2019-05-12T02:27:25.203Z,9.10
2019-05-12T02:29:52.062Z,9.10
2019-05-12T02:32:18.905Z,9.20
2019-05-12T02:34:45.878Z,9.20
2019-05-12T02:37:15.357Z,9.20
2019-05-12T02:39:44.808Z,9.20
2019-05-12T02:42:10.320Z,9.20
2019-05-12T02:44:37.170Z,9.20
2019-05-12T02:47:05.079Z,9.30
2019-05-12T02:49:34.900Z,9.30
2019-05-12T02:52:01.063Z,9.30
2019-05-12T02:54:49.407Z,9.30
2019-05-12T02:56:56.446Z,9.30
2019-05-12T02:59:25.289Z,9.30
2019-05-12T03:01:54.818Z,9.30
2019-05-12T03:04:20.696Z,9.30
2019-05-12T03:06:47.547Z,9.30
2019-05-12T03:09:15.130Z,9.40
2019-05-12T03:12:05.885Z,9.40
2019-05-12T03:14:39.427Z,9.40
2019-05-12T03:17:04.582Z,9.50
2019-05-12T03:19:30.261Z,9.50
2019-05-12T03:21:57.148Z,9.50
2019-05-12T03:24:24.966Z,9.50
2019-05-12T03:26:55.333Z,9.50
2019-05-12T03:29:24.886Z,9.60
2019-05-12T03:31:50.453Z,9.60
2019-05-12T03:34:19.689Z,9.70
2019-05-12T03:36:51.088Z,9.70
2019-05-12T03:39:15.072Z,9.70
2019-05-12T03:41:44.555Z,9.70
2019-05-12T03:44:15.011Z,9.70
2019-05-12T03:46:40.854Z,9.80
2019-05-12T03:49:07.810Z,9.80
2019-05-12T03:51:35.253Z,9.80
2019-05-12T03:54:04.724Z,9.80
2019-05-12T03:56:34.190Z,9.90
2019-05-12T03:58:59.709Z,9.90
2019-05-12T04:01:26.468Z,9.90
2019-05-12T04:03:54.413Z,10.00
2019-05-12T04:06:24.207Z,10.10
2019-05-12T04:08:50.002Z,10.10
2019-05-12T04:11:16.852Z,10.10
2019-05-12T04:13:45.377Z,10.10
2019-05-12T04:16:16.031Z,10.20
2019-05-12T04:18:44.751Z,10.20
2019-05-12T04:21:09.868Z,10.30
2019-05-12T04:23:36.849Z,10.30
2019-05-12T04:26:11.373Z,10.40
2019-05-12T04:28:35.070Z,10.40
2019-05-12T04:31:05.237Z,10.50
2019-05-12T04:33:30.592Z,10.60
2019-05-12T04:35:57.560Z,10.60
2019-05-12T04:38:24.953Z,10.70
2019-05-12T04:41:00.240Z,10.70
2019-05-12T04:43:27.092Z,10.70
2019-05-12T04:46:14.674Z,10.70
2019-05-12T04:48:41.574Z,10.80
2019-05-12T04:51:08.393Z,10.70
2019-05-12T04:53:35.474Z,10.70
2019-05-12T04:56:14.482Z,10.80
2019-05-12T04:58:34.847Z,10.80
2019-05-12T05:00:59.734Z,10.90
2019-05-12T05:03:26.579Z,11.00
2019-05-12T05:05:54.916Z,11.20
2019-05-12T05:08:24.359Z,11.20
2019-05-12T05:10:50.838Z,11.30
2019-05-12T05:13:17.680Z,11.30
2019-05-12T05:15:44.951Z,11.40
2019-05-12T05:18:13.333Z,11.40
2019-05-12T05:20:40.543Z,11.40
2019-05-12T05:23:07.396Z,11.40
2019-05-12T05:25:34.421Z,11.40
2019-05-12T05:28:03.996Z,11.50
2019-05-12T05:30:30.751Z,11.60
2019-05-12T05:32:57.715Z,11.60
2019-05-12T05:35:28.867Z,11.70
2019-05-12T05:37:54.025Z,11.80
2019-05-12T05:40:28.456Z,11.90
2019-05-12T05:42:49.856Z,11.90
2019-05-12T05:45:21.579Z,12.00
2019-05-12T05:47:48.675Z,12.10
2019-05-12T05:50:18.361Z,12.10
2019-05-12T05:52:43.794Z,12.20
2019-05-12T05:55:20.140Z,12.30
2019-05-12T05:57:39.620Z,12.30
2019-05-12T06:00:16.428Z,12.40
2019-05-12T06:02:40.171Z,12.50
2019-05-12T06:05:06.912Z,12.80
2019-05-12T06:07:38.765Z,12.90
2019-05-12T06:10:06.913Z,13.00
2019-05-12T06:12:33.764Z,12.90
2019-05-12T06:15:00.512Z,12.80
2019-05-12T06:17:27.484Z,12.80
2019-05-12T06:19:54.421Z,12.90
2019-05-12T06:22:23.440Z,12.90
2019-05-12T06:24:56.857Z,12.90
2019-05-12T06:27:21.020Z,13.00
2019-05-12T06:29:52.515Z,13.00
2019-05-12T06:32:16.896Z,13.10
2019-05-12T06:34:43.870Z,13.20
2019-05-12T06:37:14.651Z,13.30
2019-05-12T06:39:39.347Z,13.30
2019-05-12T06:42:12.756Z,13.30
2019-05-12T06:44:35.860Z,13.30
2019-05-12T06:47:08.016Z,13.30
2019-05-12T06:49:33.342Z,13.20
2019-05-12T06:52:03.423Z,13.30
2019-05-12T06:54:28.599Z,13.50
2019-05-12T06:57:16.574Z,13.80
2019-05-12T06:59:24.324Z,13.90
2019-05-12T07:02:04.299Z,14.10
2019-05-12T07:04:31.152Z,14.00
2019-05-12T07:07:00.710Z,14.00
2019-05-12T07:09:28.362Z,13.80
2019-05-12T07:12:02.775Z,13.70
2019-05-12T07:14:27.132Z,13.70
2019-05-12T07:17:01.469Z,13.60
2019-05-12T07:19:25.811Z,13.90
2019-05-12T07:21:58.219Z,13.90
2019-05-12T07:24:23.385Z,14.10
2019-05-12T07:26:54.441Z,14.40
2019-05-12T07:29:19.057Z,14.60
2019-05-12T07:31:45.893Z,15.00
2019-05-12T07:34:13.654Z,15.20
2019-05-12T07:36:40.707Z,15.50
2019-05-12T07:39:08.898Z,15.50
2019-05-12T07:41:42.426Z,15.80
2019-05-12T07:44:05.691Z,15.90
2019-05-12T07:46:34.261Z,16.10
2019-05-12T07:49:03.863Z,16.30
2019-05-12T07:51:38.389Z,16.60
2019-05-12T07:54:00.201Z,16.70
2019-05-12T07:56:46.817Z,16.90
2019-05-12T07:59:13.642Z,17.10
2019-05-12T08:01:46.598Z,16.70
2019-05-12T08:04:09.402Z,16.90
2019-05-12T08:06:41.759Z,16.90
2019-05-12T08:09:06.656Z,17.00
2019-05-12T08:11:36.639Z,17.10
2019-05-12T08:14:03.593Z,17.30
2019-05-12T08:16:36.218Z,17.40
2019-05-12T08:19:03.965Z,17.70
2019-05-12T08:21:34.797Z,18.00
2019-05-12T08:23:59.241Z,18.00
2019-05-12T08:26:26.115Z,17.80
2019-05-12T08:28:53.480Z,17.50
2019-05-12T08:31:23.488Z,17.50
2019-05-12T08:33:50.445Z,17.30
2019-05-12T08:36:17.314Z,17.60
2019-05-12T08:38:44.599Z,17.50
2019-05-12T08:41:11.714Z,17.60
2019-05-12T08:43:40.735Z,17.70
2019-05-12T08:46:12.214Z,17.70
2019-05-12T08:48:37.243Z,17.30
2019-05-12T08:51:05.326Z,17.20
2019-05-12T08:53:33.637Z,17.10
2019-05-12T08:56:04.988Z,17.50
2019-05-12T08:58:39.274Z,18.00
2019-05-12T09:00:59.299Z,18.30
2019-05-12T09:03:30.360Z,18.50
2019-05-12T09:05:55.396Z,18.40
2019-05-12T09:08:24.332Z,18.30
2019-05-12T09:10:55.174Z,18.50
2019-05-12T09:13:23.439Z,18.10
2019-05-12T09:15:50.933Z,17.50
2019-05-12T09:18:35.070Z,17.20
2019-05-12T09:21:00.596Z,17.30
2019-05-12T09:23:47.304Z,17.60
2019-05-12T09:26:18.649Z,17.20
2019-05-12T09:28:49.871Z,16.90
2019-05-12T09:31:14.050Z,16.70
2019-05-12T09:33:41.086Z,16.80
2019-05-12T09:36:11.527Z,17.00
2019-05-12T09:38:37.379Z,17.20
2019-05-12T09:41:05.443Z,17.30
2019-05-12T09:43:34.362Z,17.00
2019-05-12T09:46:03.807Z,16.80
2019-05-12T09:48:30.598Z,17.10
2019-05-12T09:51:02.062Z,17.20
2019-05-12T09:53:28.291Z,17.00
2019-05-12T09:55:58.373Z,17.20
2019-05-12T09:58:27.837Z,17.50
2019-05-12T10:00:54.497Z,17.40
2019-05-12T10:03:24.074Z,17.40
2019-05-12T10:06:04.206Z,17.60
2019-05-12T10:08:35.955Z,18.10
2019-05-12T10:11:00.148Z,18.40
2019-05-12T10:13:30.134Z,18.50
2019-05-12T10:15:58.738Z,18.30
2019-05-12T10:18:27.383Z,18.20
2019-05-12T10:20:54.716Z,18.10
2019-05-12T10:23:27.264Z,18.00
2019-05-12T10:26:14.853Z,17.70
2019-05-12T10:28:43.701Z,17.40
2019-05-12T10:31:13.864Z,17.30
2019-05-12T10:33:43.163Z,17.20
2019-05-12T10:36:10.388Z,17.00
2019-05-12T10:38:37.857Z,16.90
2019-05-12T10:41:06.253Z,16.80
2019-05-12T10:43:34.219Z,16.80
2019-05-12T10:46:07.359Z,16.90
2019-05-12T10:48:34.550Z,17.10
2019-05-12T10:51:03.236Z,17.20
2019-05-12T10:53:30.329Z,17.30
2019-05-12T10:55:57.347Z,17.30
2019-05-12T10:58:24.834Z,17.50
2019-05-12T11:00:53.715Z,18.10
2019-05-12T11:03:20.616Z,18.50
2019-05-12T11:05:47.460Z,18.60
2019-05-12T11:08:14.543Z,18.50
2019-05-12T11:10:41.458Z,18.40
2019-05-12T11:36:51.076Z,18.00
2019-05-12T11:39:18.023Z,18.30
2019-05-12T11:41:44.794Z,17.90
2019-05-12T11:44:13.171Z,17.80
2019-05-12T11:46:40.392Z,17.80
2019-05-12T11:49:09.493Z,18.10
2019-05-12T11:51:36.003Z,18.40
2019-05-12T11:54:03.484Z,18.60
2019-05-12T11:56:33.461Z,18.50
2019-05-12T11:59:00.137Z,18.20
2019-05-12T12:01:28.387Z,17.90
2019-05-12T12:03:55.232Z,17.80
2019-05-12T12:06:23.971Z,18.00
2019-05-12T12:08:50.763Z,18.30
2019-05-12T12:11:24.308Z,18.60
2019-05-12T12:13:46.255Z,18.30
2019-05-12T12:16:14.112Z,18.20
2019-05-12T12:18:48.590Z,18.30
2019-05-12T12:21:09.912Z,18.20
2019-05-12T12:23:40.902Z,17.80
2019-05-12T12:26:05.635Z,17.20
2019-05-12T12:28:34.429Z,17.00
2019-05-12T12:31:05.281Z,16.80
2019-05-12T12:33:31.161Z,16.50
2019-05-12T12:36:00.881Z,16.20
2019-05-12T12:38:47.772Z,16.20
2019-05-12T12:41:14.719Z,16.20
2019-05-12T12:43:43.262Z,16.20
2019-05-12T12:46:19.794Z,16.10
2019-05-12T12:48:40.975Z,16.10
2019-05-12T12:51:07.715Z,16.10
2019-05-12T12:53:34.530Z,16.00
2019-05-12T12:56:01.291Z,16.10
2019-05-12T12:58:31.300Z,16.10
2019-05-12T13:00:57.224Z,16.00
2019-05-12T13:03:27.711Z,16.10
2019-05-12T13:05:54.247Z,16.10
2019-05-12T13:08:22.415Z,15.90
2019-05-12T13:10:51.911Z,15.70
2019-05-12T13:13:19.750Z,15.60
2019-05-12T13:15:46.697Z,15.60
2019-05-12T13:18:18.076Z,15.50
2019-05-12T13:20:43.546Z,15.40
2019-05-12T13:23:10.731Z,15.30
2019-05-12T13:25:38.726Z,15.30
2019-05-12T13:28:10.222Z,15.20
2019-05-12T13:30:45.575Z,15.20
2019-05-12T13:33:13.450Z,15.30
2019-05-12T13:35:37.584Z,15.30
2019-05-12T13:38:05.336Z,15.30
2019-05-12T13:40:36.135Z,15.30
2019-05-12T13:43:00.898Z,15.20
2019-05-12T13:45:30.526Z,15.20
2019-05-12T13:47:57.215Z,15.20
2019-05-12T13:50:26.394Z,15.20
2019-05-12T13:52:54.252Z,15.20
2019-05-12T13:55:21.204Z,15.20
2019-05-12T13:57:56.384Z,15.10
2019-05-12T14:00:16.952Z,15.10
2019-05-12T14:02:44.331Z,15.10
2019-05-12T14:05:15.137Z,15.10
2019-05-12T14:07:43.500Z,15.10
2019-05-12T14:10:09.639Z,15.10
2019-05-12T14:12:37.587Z,15.20
2019-05-12T14:15:07.252Z,15.20
2019-05-12T14:17:37.119Z,15.20
2019-05-12T14:20:09.427Z,15.20
2019-05-12T14:22:34.487Z,15.30
2019-05-12T14:25:02.186Z,15.30
2019-05-12T14:27:29.352Z,15.50
2019-05-12T14:30:00.263Z,15.70
2019-05-12T14:32:24.836Z,16.10
2019-05-12T14:34:58.729Z,16.30
2019-05-12T14:37:24.287Z,16.60
2019-05-12T14:39:53.738Z,16.80
2019-05-12T14:42:26.008Z,17.00
2019-05-12T14:44:50.305Z,17.00
2019-05-12T14:47:19.360Z,16.90
2019-05-12T14:49:46.282Z,17.00
2019-05-12T14:52:13.489Z,16.90
2019-05-12T14:54:40.568Z,16.80
2019-05-12T14:57:07.891Z,16.70
2019-05-12T14:59:39.730Z,16.60
2019-05-12T15:02:10.621Z,16.70
2019-05-12T15:04:37.990Z,16.60
2019-05-12T15:07:09.651Z,16.60
2019-05-12T15:09:35.069Z,16.60
2019-05-12T15:12:03.609Z,16.50
2019-05-12T15:14:36.665Z,16.50
2019-05-12T15:17:00.072Z,16.60
2019-05-12T15:19:29.798Z,16.50
2019-05-12T15:22:07.595Z,16.50
2019-05-12T15:24:33.530Z,16.60
2019-05-12T15:27:00.972Z,16.70
2019-05-12T15:29:28.296Z,16.70
2019-05-12T15:31:56.813Z,16.80
2019-05-12T15:34:24.394Z,16.80
2019-05-12T15:36:55.987Z,16.70
2019-05-12T15:39:22.026Z,16.80
2019-05-12T15:41:51.051Z,16.90
2019-05-12T15:44:23.131Z,17.00
2019-05-12T15:46:46.831Z,16.90
2019-05-12T15:49:14.013Z,16.80
2019-05-12T15:51:51.010Z,16.70
2019-05-12T15:54:11.813Z,16.70
2019-05-12T15:56:39.018Z,16.60
2019-05-12T15:59:06.128Z,16.60
2019-05-12T16:01:33.742Z,16.60
2019-05-12T16:04:03.229Z,16.50
2019-05-12T16:06:29.466Z,16.60
2019-05-12T16:08:57.108Z,16.80
2019-05-12T16:11:24.564Z,16.80
2019-05-12T16:13:57.184Z,16.80
2019-05-12T16:16:21.649Z,16.80
2019-05-12T16:18:50.635Z,16.90
2019-05-12T16:21:17.544Z,16.80
2019-05-12T16:23:44.794Z,16.80
2019-05-12T16:26:14.676Z,16.80
2019-05-12T16:28:40.658Z,16.70
2019-05-12T16:31:08.843Z,16.60
2019-05-12T16:33:37.682Z,16.50
2019-05-12T16:36:06.651Z,16.40
2019-05-12T16:38:33.236Z,16.40
2019-05-12T16:41:00.313Z,16.40
2019-05-12T16:43:34.998Z,16.40
2019-05-12T16:46:18.973Z,16.30
2019-05-12T16:48:48.286Z,16.20
2019-05-12T16:51:15.263Z,16.30
2019-05-12T16:53:43.625Z,16.30
2019-05-12T16:56:10.880Z,16.30
2019-05-12T16:58:37.869Z,16.30
2019-05-12T17:01:04.936Z,16.20
2019-05-12T17:03:34.014Z,16.30
2019-05-12T17:06:00.882Z,16.20
2019-05-12T17:08:27.952Z,16.10
2019-05-12T17:11:01.040Z,16.00
2019-05-12T17:13:25.591Z,15.90
2019-05-12T17:16:00.140Z,15.90
2019-05-12T17:18:27.699Z,15.80
2019-05-12T17:20:54.798Z,15.80
2019-05-12T17:23:24.601Z,15.70
2019-05-12T17:25:53.094Z,15.70
2019-05-12T17:28:20.080Z,15.60
2019-05-12T17:30:47.012Z,15.50
2019-05-12T17:33:22.331Z,15.50
2019-05-12T17:35:44.679Z,15.40
2019-05-12T17:38:19.718Z,15.40
2019-05-12T17:40:41.184Z,15.30
2019-05-12T17:43:11.881Z,15.30
2019-05-12T17:45:40.175Z,15.20
2019-05-12T17:48:07.992Z,15.10
2019-05-12T17:50:35.215Z,15.00
2019-05-12T17:53:04.319Z,14.90
2019-05-12T17:55:31.032Z,14.90
2019-05-12T17:57:58.053Z,14.80
2019-05-12T18:00:26.435Z,14.70
2019-05-12T18:02:56.273Z,14.70
2019-05-12T18:05:23.725Z,14.60
2019-05-12T18:07:53.193Z,14.50
2019-05-12T18:10:20.000Z,14.40
2019-05-12T18:12:47.091Z,14.40
2019-05-12T18:15:15.451Z,14.30
2019-05-12T18:17:57.994Z,14.20
2019-05-12T18:20:24.739Z,14.10
2019-05-12T18:22:53.529Z,14.00
2019-05-12T18:25:24.189Z,13.90
2019-05-12T18:27:50.959Z,13.80
2019-05-12T18:30:19.226Z,13.80
2019-05-12T18:32:47.949Z,13.70
2019-05-12T18:35:14.949Z,13.60
2019-05-12T18:37:41.836Z,13.50
2019-05-12T18:40:09.002Z,13.40
2019-05-12T18:42:36.034Z,13.30
2019-05-12T18:45:11.946Z,13.20
2019-05-12T18:47:36.420Z,13.10
2019-05-12T18:50:05.231Z,13.00
2019-05-12T18:52:36.455Z,12.90
2019-05-12T18:55:04.328Z,12.80
2019-05-12T18:57:33.699Z,12.80
2019-05-12T19:00:04.080Z,12.70
2019-05-12T19:02:28.817Z,12.60
2019-05-12T19:04:55.707Z,12.50
2019-05-12T19:07:38.671Z,12.40
2019-05-12T19:09:56.907Z,12.40
2019-05-12T19:12:31.895Z,12.30
2019-05-12T19:14:54.674Z,12.20
2019-05-12T19:17:24.042Z,12.10
2019-05-12T19:19:53.985Z,12.10
2019-05-12T19:22:19.104Z,12.00
2019-05-12T19:24:50.100Z,12.00
2019-05-12T19:27:16.555Z,11.90
2019-05-12T19:29:48.821Z,11.90
2019-05-12T19:32:14.377Z,11.80
2019-05-12T19:34:43.326Z,11.70
2019-05-12T19:37:11.079Z,11.70
2019-05-12T19:39:38.375Z,11.70
2019-05-12T19:42:05.319Z,11.60
2019-05-12T19:44:34.261Z,11.60
2019-05-12T19:47:01.279Z,11.40
2019-05-12T19:49:43.503Z,11.40
2019-05-12T19:51:58.173Z,11.30
2019-05-12T19:54:39.699Z,11.30
2019-05-12T19:57:12.959Z,11.30
2019-05-12T19:59:35.848Z,11.30
2019-05-12T20:02:04.091Z,11.20
2019-05-12T20:04:36.494Z,11.20
2019-05-12T20:06:59.947Z,11.10
2019-05-12T20:09:27.544Z,11.10
2019-05-12T20:11:54.744Z,11.00
2019-05-12T20:14:24.132Z,11.00
2019-05-12T20:16:50.284Z,11.00
2019-05-12T20:19:19.900Z,10.90
2019-05-12T20:21:45.840Z,10.90
2019-05-12T20:24:14.361Z,10.80
2019-05-12T20:26:41.195Z,10.80
2019-05-12T20:29:08.019Z,10.80
2019-05-12T20:31:43.422Z,10.80
2019-05-12T20:34:09.755Z,10.70
2019-05-12T20:36:33.957Z,10.70
2019-05-12T20:39:04.071Z,10.70
2019-05-12T20:41:30.259Z,10.70
2019-05-12T20:43:57.007Z,10.70
2019-05-12T20:46:25.740Z,10.80
2019-05-12T20:48:53.870Z,10.80
2019-05-12T20:51:20.952Z,10.80
2019-05-12T20:53:47.946Z,10.80
2019-05-12T20:56:20.087Z,10.80
2019-05-12T20:58:46.418Z,10.90
2019-05-12T21:01:13.939Z,10.90
2019-05-12T21:03:46.337Z,10.90
2019-05-12T21:06:09.743Z,10.90
2019-05-12T21:08:36.614Z,10.90
2019-05-12T21:11:03.351Z,10.90
2019-05-12T21:13:31.917Z,10.90
2019-05-12T21:15:59.031Z,10.90
2019-05-12T21:18:26.001Z,11.00
2019-05-12T21:20:54.838Z,11.00
2019-05-12T21:23:23.898Z,11.00
2019-05-12T21:25:53.314Z,11.00
2019-05-12T21:28:19.058Z,10.90
2019-05-12T21:34:52.279Z,10.90
2019-05-12T21:37:19.763Z,10.90
2019-05-12T21:39:50.969Z,10.90
2019-05-12T21:42:16.946Z,10.90
2019-05-12T21:44:46.828Z,10.80
2019-05-12T21:47:13.860Z,10.70
2019-05-12T21:49:42.804Z,10.70
2019-05-12T21:52:09.927Z,10.60
2019-05-12T21:54:39.556Z,10.60
2019-05-12T21:57:05.496Z,10.50
2019-05-12T21:59:35.291Z,10.50
2019-05-12T22:02:01.209Z,10.50
2019-05-12T22:04:32.953Z,10.40
2019-05-12T22:06:57.355Z,10.40
2019-05-12T22:09:25.543Z,10.40
2019-05-12T22:11:54.164Z,10.30
2019-05-12T22:14:20.999Z,10.30
2019-05-12T22:16:49.728Z,10.30
2019-05-12T22:19:16.568Z,10.30
2019-05-12T22:21:48.032Z,10.10
2019-05-12T22:24:14.694Z,10.00
2019-05-12T22:26:45.958Z,10.10
2019-05-12T22:29:09.595Z,10.10
2019-05-12T22:31:49.687Z,10.00
2019-05-12T22:34:16.624Z,10.00
2019-05-12T22:36:45.369Z,10.10
2019-05-12T22:39:14.156Z,10.00
2019-05-12T22:41:41.540Z,10.00
2019-05-12T22:44:08.954Z,10.00
2019-05-12T22:46:35.961Z,10.10
2019-05-12T22:49:04.156Z,10.10
2019-05-12T22:51:31.256Z,10.10
2019-05-12T22:54:00.585Z,10.20
2019-05-12T22:56:26.724Z,10.20
2019-05-12T22:58:59.974Z,10.10
2019-05-12T23:04:18.235Z,10.10
2019-05-12T23:06:46.800Z,10.10
2019-05-12T23:09:13.952Z,10.10
2019-05-12T23:11:41.108Z,10.20
2019-05-12T23:14:12.501Z,10.10
2019-05-12T23:16:37.148Z,10.20
2019-05-12T23:19:10.375Z,10.20
2019-05-12T23:21:33.279Z,10.20
2019-05-12T23:24:00.874Z,10.20
2019-05-12T23:26:33.257Z,10.30
2019-05-12T23:28:56.979Z,10.30
2019-05-12T23:31:26.129Z,10.30
2019-05-12T23:33:54.368Z,10.30
2019-05-12T23:36:35.208Z,10.30
2019-05-12T23:38:54.423Z,10.40
2019-05-12T23:41:19.345Z,10.40
2019-05-12T23:43:46.323Z,10.40
2019-05-12T23:46:13.438Z,10.40
2019-05-12T23:48:40.310Z,10.40
2019-05-12T23:51:07.431Z,10.30
2019-05-12T23:53:34.473Z,10.30
2019-05-12T23:56:03.773Z,10.30
2019-05-12T23:58:30.308Z,10.30
